createdAt,value
2018-02-01T00:00:49.143Z,1.43
2018-02-01T00:03:17.383Z,1.43
2018-02-01T00:05:45.489Z,1.40
2018-02-01T00:08:13.549Z,1.03
2018-02-01T00:10:41.519Z,1.03
2018-02-01T00:13:09.697Z,1.40
2018-02-01T00:15:38.407Z,1.20
2018-02-01T00:18:07.079Z,1.10
2018-02-01T00:20:35.912Z,1.40
2018-02-01T00:23:04.817Z,1.40
2018-02-01T00:25:33.584Z,0.90
2018-02-01T00:28:01.558Z,0.90
2018-02-01T00:30:29.656Z,0.90
2018-02-01T00:32:58.215Z,0.77
2018-02-01T00:35:26.335Z,0.80
2018-02-01T00:37:54.499Z,0.90
2018-02-01T00:40:22.693Z,0.80
2018-02-01T00:42:51.480Z,0.90
2018-02-01T00:45:19.586Z,0.80
2018-02-01T00:47:47.668Z,0.90
2018-02-01T00:50:16.450Z,1.03
2018-02-01T00:52:44.399Z,1.00
2018-02-01T00:55:13.208Z,0.87
2018-02-01T00:57:41.322Z,1.00
2018-02-01T01:00:09.626Z,0.83
2018-02-01T01:02:37.685Z,1.17
2018-02-01T01:05:05.860Z,0.93
2018-02-01T01:07:34.028Z,0.80
2018-02-01T01:10:02.220Z,0.70
2018-02-01T01:12:31.071Z,0.80
2018-02-01T01:14:59.284Z,0.90
2018-02-01T01:17:28.301Z,0.70
2018-02-01T01:19:56.333Z,0.70
2018-02-01T01:22:24.422Z,0.60
2018-02-01T01:24:53.327Z,0.70
2018-02-01T01:27:21.292Z,0.83
2018-02-01T01:29:50.092Z,0.90
2018-02-01T01:32:18.160Z,0.70
2018-02-01T01:34:46.594Z,0.90
2018-02-01T01:37:14.876Z,0.90
2018-02-01T01:39:43.137Z,0.80
2018-02-01T01:42:11.309Z,0.77
2018-02-01T01:44:39.567Z,0.80
2018-02-01T01:47:08.014Z,0.80
2018-02-01T01:49:36.030Z,0.80
2018-02-01T01:52:04.254Z,0.90
2018-02-01T01:54:33.076Z,0.80
2018-02-01T01:57:01.044Z,0.73
2018-02-01T01:59:29.306Z,0.70
2018-02-01T02:01:57.363Z,0.70
2018-02-01T02:04:25.547Z,0.80
2018-02-01T02:06:53.559Z,0.80
2018-02-01T02:09:21.474Z,0.90
2018-02-01T02:11:49.398Z,0.90
2018-02-01T02:14:17.518Z,1.00
2018-02-01T02:16:45.539Z,0.93
2018-02-01T02:19:13.575Z,1.00
2018-02-01T02:21:41.718Z,1.10
2018-02-01T02:24:09.878Z,0.97
2018-02-01T02:26:38.626Z,1.07
2018-02-01T02:29:06.759Z,1.20
2018-02-01T02:31:34.887Z,1.07
2018-02-01T02:34:02.855Z,1.10
2018-02-01T02:36:30.875Z,1.10
2018-02-01T02:38:59.252Z,1.10
2018-02-01T02:41:27.250Z,1.30
2018-02-01T02:43:55.288Z,1.37
2018-02-01T02:46:23.299Z,1.30
2018-02-01T02:48:51.264Z,1.40
2018-02-01T02:51:19.422Z,1.13
2018-02-01T02:53:47.453Z,1.20
2018-02-01T02:56:16.163Z,1.47
2018-02-01T02:58:44.295Z,1.43
2018-02-01T03:01:13.056Z,1.30
2018-02-01T03:03:41.265Z,2.10
2018-02-01T03:06:09.958Z,2.47
2018-02-01T03:08:38.790Z,2.73
2018-02-01T03:11:06.759Z,4.67
2018-02-01T03:13:34.691Z,1.80
2018-02-01T03:16:02.902Z,4.23
2018-02-01T03:18:31.130Z,2.00
2018-02-01T03:20:59.192Z,2.00
2018-02-01T03:23:28.009Z,2.27
2018-02-01T03:25:56.183Z,1.90
2018-02-01T03:28:24.480Z,1.83
2018-02-01T03:30:52.451Z,1.93
2018-02-01T03:33:20.498Z,1.80
2018-02-01T03:35:48.646Z,1.60
2018-02-01T03:38:17.530Z,2.20
2018-02-01T03:40:46.432Z,2.70
2018-02-01T03:43:15.160Z,1.97
2018-02-01T03:45:43.129Z,1.93
2018-02-01T03:48:11.196Z,1.87
2018-02-01T03:50:39.328Z,2.10
2018-02-01T03:53:08.051Z,2.17
2018-02-01T03:55:36.140Z,1.80
2018-02-01T03:58:04.478Z,2.33
2018-02-01T04:00:32.860Z,1.67
2018-02-01T04:03:01.254Z,2.17
2018-02-01T04:05:29.428Z,2.10
2018-02-01T04:07:58.160Z,2.27
2018-02-01T04:10:27.323Z,2.27
2018-02-01T04:12:55.268Z,2.30
2018-02-01T04:15:24.082Z,2.53
2018-02-01T04:17:52.128Z,3.50
2018-02-01T04:20:21.474Z,2.77
2018-02-01T04:22:50.328Z,2.73
2018-02-01T04:25:18.478Z,2.60
2018-02-01T04:27:46.904Z,2.57
2018-02-01T04:30:14.985Z,2.40
2018-02-01T04:32:44.553Z,2.93
2018-02-01T04:35:12.852Z,3.17
2018-02-01T04:37:40.859Z,2.80
2018-02-01T04:40:09.655Z,2.90
2018-02-01T04:42:38.464Z,2.47
2018-02-01T04:45:06.716Z,3.00
2018-02-01T04:47:35.691Z,2.87
2018-02-01T04:50:03.934Z,2.73
2018-02-01T04:52:32.081Z,2.70
2018-02-01T04:55:00.274Z,2.93
2018-02-01T04:57:28.564Z,2.73
2018-02-01T04:59:57.002Z,2.70
2018-02-01T05:02:25.080Z,3.17
2018-02-01T05:04:53.296Z,2.93
2018-02-01T05:07:21.460Z,2.63
2018-02-01T05:09:49.528Z,3.47
2018-02-01T05:12:17.506Z,5.50
2018-02-01T05:14:45.453Z,3.40
2018-02-01T05:17:13.529Z,2.90
2018-02-01T05:19:42.056Z,3.10
2018-02-01T05:24:54.089Z,3.00
2018-02-01T05:27:23.217Z,3.43
2018-02-01T05:29:51.421Z,3.40
2018-02-01T05:32:20.781Z,3.07
2018-02-01T05:34:48.846Z,3.40
2018-02-01T05:37:17.043Z,3.03
2018-02-01T05:39:45.233Z,3.73
2018-02-01T05:42:13.401Z,3.70
2018-02-01T05:44:41.763Z,3.80
2018-02-01T05:47:09.823Z,4.07
2018-02-01T05:49:37.930Z,3.60
2018-02-01T05:52:06.097Z,3.55
2018-02-01T05:54:34.118Z,3.57
2018-02-01T05:57:02.371Z,3.27
2018-02-01T05:59:30.406Z,4.30
2018-02-01T06:01:58.686Z,3.53
2018-02-01T06:04:26.789Z,3.23
2018-02-01T06:06:54.912Z,3.43
2018-02-01T06:09:23.399Z,2.97
2018-02-01T06:11:51.515Z,2.90
2018-02-01T06:14:19.530Z,4.87
2018-02-01T06:16:47.796Z,2.77
2018-02-01T06:19:15.774Z,2.70
2018-02-01T06:21:43.866Z,2.83
2018-02-01T06:24:12.020Z,3.00
2018-02-01T06:26:40.045Z,3.15
2018-02-01T06:29:08.597Z,3.30
2018-02-01T06:31:36.902Z,6.15
2018-02-01T06:34:04.951Z,3.53
2018-02-01T06:36:32.996Z,2.90
2018-02-01T06:39:01.775Z,5.70
2018-02-01T06:41:30.870Z,3.85
2018-02-01T06:43:58.856Z,3.60
2018-02-01T06:46:26.975Z,2.93
2018-02-01T06:48:55.083Z,3.30
2018-02-01T06:51:23.169Z,3.12
2018-02-01T06:53:51.582Z,3.47
2018-02-01T06:56:20.327Z,3.50
2018-02-01T06:58:48.767Z,3.77
2018-02-01T07:01:16.806Z,3.53
2018-02-01T07:03:44.818Z,2.90
2018-02-01T07:06:12.831Z,3.53
2018-02-01T07:08:40.795Z,4.10
2018-02-01T07:11:09.160Z,3.70
2018-02-01T07:13:37.172Z,3.10
2018-02-01T07:16:05.117Z,3.60
2018-02-01T07:18:33.101Z,3.90
2018-02-01T07:21:01.634Z,3.93
2018-02-01T07:23:29.634Z,3.20
2018-02-01T07:25:57.884Z,4.03
2018-02-01T07:28:25.875Z,4.23
2018-02-01T07:30:54.747Z,3.58
2018-02-01T07:33:22.900Z,4.65
2018-02-01T07:35:51.586Z,5.50
2018-02-01T07:38:20.138Z,3.75
2018-02-01T07:40:48.162Z,3.03
2018-02-01T07:43:16.906Z,3.30
2018-02-01T07:45:45.046Z,4.07
2018-02-01T07:48:12.991Z,4.23
2018-02-01T07:50:42.124Z,7.93
2018-02-01T07:53:10.279Z,4.33
2018-02-01T07:55:39.690Z,4.20
2018-02-01T07:58:09.273Z,3.70
2018-02-01T08:00:38.084Z,4.17
2018-02-01T08:03:06.298Z,3.97
2018-02-01T08:05:35.038Z,3.80
2018-02-01T08:08:04.580Z,3.42
2018-02-01T08:10:32.893Z,3.70
2018-02-01T08:13:00.878Z,4.00
2018-02-01T08:15:29.012Z,4.65
2018-02-01T08:17:57.774Z,4.93
2018-02-01T08:20:26.308Z,5.43
2018-02-01T08:22:54.506Z,4.97
2018-02-01T08:25:22.648Z,4.27
2018-02-01T08:27:50.824Z,4.03
2018-02-01T08:30:19.598Z,4.47
2018-02-01T08:32:47.991Z,4.13
2018-02-01T08:35:17.429Z,5.00
2018-02-01T08:37:46.705Z,5.30
2018-02-01T08:40:15.041Z,6.40
2018-02-01T08:42:43.216Z,5.20
2018-02-01T08:45:11.268Z,5.43
2018-02-01T08:47:39.304Z,6.33
2018-02-01T08:50:07.968Z,5.57
2018-02-01T08:52:36.874Z,4.82
2018-02-01T08:55:05.347Z,4.57
2018-02-01T08:57:33.452Z,5.05
2018-02-01T09:00:01.582Z,5.15
2018-02-01T09:02:29.658Z,4.93
2018-02-01T09:04:58.032Z,4.57
2018-02-01T09:07:26.042Z,6.67
2018-02-01T09:09:54.088Z,3.97
2018-02-01T09:12:22.158Z,5.40
2018-02-01T09:14:50.286Z,4.23
2018-02-01T09:17:19.009Z,3.87
2018-02-01T09:19:47.078Z,3.97
2018-02-01T09:22:32.654Z,4.70
2018-02-01T09:25:00.869Z,3.00
2018-02-01T09:27:29.079Z,3.50
2018-02-01T09:29:57.446Z,3.27
2018-02-01T09:32:25.663Z,3.90
2018-02-01T09:34:53.814Z,3.03
2018-02-01T09:37:21.798Z,3.87
2018-02-01T09:39:51.183Z,3.17
2018-02-01T09:42:19.890Z,3.47
2018-02-01T09:44:48.137Z,3.77
2018-02-01T09:47:16.238Z,3.87
2018-02-01T09:49:44.962Z,2.70
2018-02-01T09:52:13.310Z,3.37
2018-02-01T09:54:41.315Z,3.00
2018-02-01T09:57:10.407Z,2.70
2018-02-01T09:59:39.084Z,2.73
2018-02-01T10:02:07.891Z,2.47
2018-02-01T10:04:35.906Z,2.50
2018-02-01T10:13:48.083Z,3.03
2018-02-01T10:16:18.552Z,3.00
2018-02-01T10:18:46.543Z,2.33
2018-02-01T10:21:14.526Z,2.50
2018-02-01T10:23:42.840Z,2.90
2018-02-01T10:26:10.860Z,2.87
2018-02-01T10:28:38.978Z,2.40
2018-02-01T10:31:07.105Z,2.80
2018-02-01T10:33:35.073Z,2.67
2018-02-01T10:36:03.729Z,2.50
2018-02-01T10:38:32.019Z,4.00
2018-02-01T10:41:00.169Z,2.97
2018-02-01T10:43:28.770Z,3.27
2018-02-01T10:45:56.702Z,2.10
2018-02-01T10:48:25.736Z,2.90
2018-02-01T10:50:53.724Z,2.10
2018-02-01T10:53:21.753Z,3.60
2018-02-01T10:55:50.209Z,3.60
2018-02-01T10:58:19.096Z,2.37
2018-02-01T11:00:47.979Z,2.90
2018-02-01T11:03:16.058Z,2.10
2018-02-01T11:05:44.953Z,1.97
2018-02-01T11:08:14.123Z,2.50
2018-02-01T11:10:42.090Z,1.83
2018-02-01T11:13:10.087Z,1.97
2018-02-01T11:15:38.890Z,1.77
2018-02-01T11:18:07.091Z,2.37
2018-02-01T11:20:35.696Z,2.23
2018-02-01T11:23:03.699Z,2.27
2018-02-01T11:25:31.721Z,4.60
2018-02-01T11:27:59.787Z,2.30
2018-02-01T11:30:27.889Z,2.30
2018-02-01T11:32:55.911Z,1.77
2018-02-01T11:35:23.951Z,1.70
2018-02-01T11:37:52.613Z,2.33
2018-02-01T11:40:20.605Z,1.70
2018-02-01T11:42:49.332Z,1.80
2018-02-01T11:45:17.424Z,1.90
2018-02-01T11:47:45.435Z,2.20
2018-02-01T11:50:14.270Z,1.90
2018-02-01T11:52:42.319Z,2.00
2018-02-01T11:55:10.259Z,2.00
2018-02-01T11:57:38.762Z,1.70
2018-02-01T12:00:06.756Z,1.67
2018-02-01T12:02:35.490Z,1.77
2018-02-01T12:05:03.447Z,2.10
2018-02-01T12:07:31.502Z,1.97
2018-02-01T12:09:59.781Z,2.00
2018-02-01T12:12:27.722Z,2.10
2018-02-01T12:14:55.657Z,1.73
2018-02-01T12:17:23.672Z,1.80
2018-02-01T12:19:51.730Z,2.00
2018-02-01T12:22:19.701Z,1.90
2018-02-01T12:24:47.689Z,1.53
2018-02-01T12:27:15.971Z,1.80
2018-02-01T12:29:43.995Z,1.60
2018-02-01T12:32:12.393Z,2.20
2018-02-01T12:34:41.179Z,1.53
2018-02-01T12:37:09.351Z,1.70
2018-02-01T12:39:37.354Z,1.77
2018-02-01T12:42:05.534Z,2.20
2018-02-01T12:44:33.531Z,1.23
2018-02-01T12:47:01.460Z,1.60
2018-02-01T12:49:29.479Z,1.73
2018-02-01T12:51:57.598Z,1.63
2018-02-01T12:54:25.698Z,1.70
2018-02-01T12:56:54.382Z,1.40
2018-02-01T12:59:23.203Z,1.30
2018-02-01T13:01:51.374Z,1.60
2018-02-01T13:04:19.589Z,2.40
2018-02-01T13:06:47.651Z,1.63
2018-02-01T13:09:15.635Z,1.80
2018-02-01T13:11:43.675Z,1.77
2018-02-01T13:14:11.781Z,1.73
2018-02-01T13:16:40.464Z,1.97
2018-02-01T13:19:08.589Z,1.60
2018-02-01T13:21:36.655Z,1.60
2018-02-01T13:24:04.645Z,1.50
2018-02-01T13:26:32.924Z,1.63
2018-02-01T13:29:01.463Z,1.90
2018-02-01T13:31:29.530Z,1.63
2018-02-01T13:33:57.553Z,1.43
2018-02-01T13:36:25.631Z,2.07
2018-02-01T13:38:54.249Z,1.90
2018-02-01T13:41:23.195Z,1.80
2018-02-01T13:43:51.310Z,1.90
2018-02-01T13:46:20.374Z,14.20
2018-02-01T13:48:48.402Z,1.20
2018-02-01T13:51:16.474Z,1.50
2018-02-01T13:53:45.006Z,2.00
2018-02-01T13:56:13.152Z,2.03
2018-02-01T13:58:41.144Z,1.93
2018-02-01T14:01:09.156Z,2.43
2018-02-01T14:03:37.168Z,1.73
2018-02-01T14:06:06.100Z,1.90
2018-02-01T14:08:34.950Z,2.20
2018-02-01T14:11:03.460Z,1.67
2018-02-01T14:13:32.128Z,1.80
2018-02-01T14:16:00.184Z,2.13
2018-02-01T14:18:28.190Z,2.00
2018-02-01T14:20:57.246Z,1.70
2018-02-01T14:23:26.558Z,1.40
2018-02-01T14:25:54.584Z,2.07
2018-02-01T14:28:22.652Z,1.60
2018-02-01T14:30:50.745Z,1.80
2018-02-01T14:33:18.662Z,1.60
2018-02-01T14:35:47.733Z,1.40
2018-02-01T14:38:15.877Z,1.50
2018-02-01T14:40:43.799Z,1.83
2018-02-01T14:43:12.610Z,1.83
2018-02-01T14:45:40.662Z,1.57
2018-02-01T14:48:09.685Z,2.20
2018-02-01T14:50:38.080Z,1.80
2018-02-01T14:53:06.187Z,1.63
2018-02-01T14:55:35.039Z,1.60
2018-02-01T14:58:03.136Z,2.00
2018-02-01T15:00:31.326Z,1.27
2018-02-01T15:02:59.348Z,2.60
2018-02-01T15:05:28.090Z,1.90
2018-02-01T15:08:59.566Z,2.47
2018-02-01T15:11:27.618Z,2.20
2018-02-01T15:13:56.384Z,1.80
2018-02-01T15:17:53.865Z,1.30
2018-02-01T15:20:22.045Z,1.80
2018-02-01T15:22:50.250Z,2.80
2018-02-01T15:25:18.690Z,1.70
2018-02-01T15:27:46.771Z,1.33
2018-02-01T15:30:15.485Z,1.30
2018-02-01T15:32:43.590Z,2.10
2018-02-01T15:35:11.664Z,2.10
2018-02-01T15:37:39.765Z,3.53
2018-02-01T15:40:08.590Z,1.40
2018-02-01T15:42:37.359Z,1.80
2018-02-01T15:45:07.378Z,1.80
2018-02-01T15:47:35.532Z,2.43
2018-02-01T15:50:03.941Z,2.20
2018-02-01T15:52:32.716Z,5.27
2018-02-01T15:55:01.927Z,2.10
2018-02-01T15:57:30.670Z,1.60
2018-02-01T15:59:58.719Z,1.80
2018-02-01T16:02:26.655Z,2.10
2018-02-01T16:04:54.703Z,1.60
2018-02-01T16:07:23.579Z,1.70
2018-02-01T16:09:51.655Z,2.00
2018-02-01T16:12:20.491Z,1.70
2018-02-01T16:14:48.509Z,2.10
2018-02-01T16:17:17.428Z,1.70
2018-02-01T16:19:45.678Z,1.87
2018-02-01T16:22:14.669Z,1.60
2018-02-01T16:24:43.591Z,1.80
2018-02-01T16:27:11.735Z,2.20
2018-02-01T16:29:40.595Z,2.23
2018-02-01T16:32:09.107Z,1.47
2018-02-01T16:34:37.204Z,1.80
2018-02-01T16:37:05.678Z,2.00
2018-02-01T16:39:34.561Z,1.80
2018-02-01T16:42:02.637Z,2.10
2018-02-01T16:44:31.532Z,1.90
2018-02-01T16:46:59.476Z,1.67
2018-02-01T16:49:28.281Z,1.50
2018-02-01T16:51:56.469Z,1.70
2018-02-01T16:54:24.450Z,1.80
2018-02-01T16:56:52.597Z,1.60
2018-02-01T16:59:21.484Z,2.30
2018-02-01T17:01:50.453Z,1.80
2018-02-01T17:04:18.376Z,2.10
2018-02-01T17:06:47.454Z,2.47
2018-02-01T17:09:15.588Z,2.07
2018-02-01T17:11:45.364Z,1.97
2018-02-01T17:14:16.672Z,2.07
2018-02-01T17:16:45.961Z,2.10
2018-02-01T17:19:15.305Z,2.47
2018-02-01T17:21:43.299Z,2.00
2018-02-01T17:24:11.412Z,1.90
2018-02-01T17:26:39.872Z,2.20
2018-02-01T17:29:08.107Z,2.60
2018-02-01T17:31:36.307Z,1.83
2018-02-01T17:34:04.498Z,2.50
2018-02-01T17:36:33.409Z,1.93
2018-02-01T17:39:01.488Z,1.93
2018-02-01T17:41:29.529Z,2.23
2018-02-01T17:44:00.264Z,2.60
2018-02-01T17:46:29.201Z,2.60
2018-02-01T17:48:57.225Z,2.63
2018-02-01T17:51:26.068Z,3.37
2018-02-01T17:53:54.297Z,2.77
2018-02-01T17:56:22.491Z,2.50
2018-02-01T17:58:50.552Z,2.53
2018-02-01T18:01:18.547Z,4.13
2018-02-01T18:03:46.721Z,3.30
2018-02-01T18:06:15.117Z,2.80
2018-02-01T18:08:43.065Z,2.95
2018-02-01T18:11:11.311Z,3.40
2018-02-01T18:13:39.484Z,3.87
2018-02-01T18:16:07.545Z,3.00
2018-02-01T18:18:36.373Z,3.15
2018-02-01T18:21:04.630Z,3.30
2018-02-01T18:23:33.622Z,3.47
2018-02-01T18:26:01.685Z,3.87
2018-02-01T18:28:30.174Z,3.83
2018-02-01T18:30:59.468Z,3.57
2018-02-01T18:33:28.019Z,3.67
2018-02-01T18:35:56.144Z,3.63
2018-02-01T18:38:24.318Z,3.77
2018-02-01T18:40:52.629Z,4.33
2018-02-01T18:43:20.712Z,3.60
2018-02-01T18:45:48.845Z,3.50
2018-02-01T18:48:17.116Z,3.77
2018-02-01T18:50:46.142Z,4.23
2018-02-01T18:53:14.199Z,3.43
2018-02-01T18:55:42.146Z,3.77
2018-02-01T18:58:10.090Z,3.60
2018-02-01T19:00:38.039Z,3.73
2018-02-01T19:03:06.920Z,3.03
2018-02-01T19:05:35.294Z,3.50
2018-02-01T19:08:03.428Z,3.67
2018-02-01T19:10:31.537Z,3.20
2018-02-01T19:13:00.049Z,3.90
2018-02-01T19:15:28.178Z,3.77
2018-02-01T19:17:56.579Z,5.50
2018-02-01T19:20:25.931Z,3.63
2018-02-01T19:22:53.994Z,3.70
2018-02-01T19:25:22.243Z,2.53
2018-02-01T19:27:50.324Z,3.17
2018-02-01T19:30:18.487Z,3.57
2018-02-01T19:32:46.562Z,4.27
2018-02-01T19:35:14.898Z,3.80
2018-02-01T19:37:42.906Z,4.57
2018-02-01T19:40:10.918Z,4.32
2018-02-01T19:42:38.992Z,4.40
2018-02-01T19:45:07.179Z,4.07
2018-02-01T19:47:35.408Z,4.47
2018-02-01T19:50:03.526Z,3.50
2018-02-01T19:52:31.593Z,3.67
2018-02-01T19:55:00.640Z,4.13
2018-02-01T19:57:28.711Z,4.13
2018-02-01T19:59:56.856Z,3.97
2018-02-01T20:02:25.727Z,4.27
2018-02-01T20:04:53.682Z,4.15
2018-02-01T20:07:21.845Z,4.23
2018-02-01T20:09:49.779Z,4.70
2018-02-01T20:12:17.877Z,4.50
2018-02-01T20:14:45.839Z,5.22
2018-02-01T20:17:13.837Z,4.40
2018-02-01T20:19:41.949Z,1.80
2018-02-01T20:22:10.166Z,1.83
2018-02-01T20:24:38.182Z,1.50
2018-02-01T20:27:07.140Z,1.50
2018-02-01T20:29:35.293Z,1.50
2018-02-01T20:32:03.297Z,2.55
2018-02-01T20:34:31.538Z,2.40
2018-02-01T20:36:59.585Z,2.80
2018-02-01T20:39:27.629Z,2.80
2018-02-01T20:41:56.696Z,2.65
2018-02-01T20:44:24.789Z,3.22
2018-02-01T20:46:53.522Z,3.70
2018-02-01T20:49:21.876Z,3.40
2018-02-01T20:51:49.941Z,3.73
2018-02-01T20:54:18.054Z,3.70
2018-02-01T20:56:46.255Z,3.90
2018-02-01T20:59:14.573Z,3.50
2018-02-01T21:01:42.651Z,3.72
2018-02-01T21:04:10.723Z,3.90
2018-02-01T21:06:38.770Z,4.20
2018-02-01T21:09:07.631Z,4.80
2018-02-01T21:11:36.135Z,5.05
2018-02-01T21:14:04.989Z,5.35
2018-02-01T21:16:32.996Z,5.62
2018-02-01T21:19:01.965Z,4.87
2018-02-01T21:21:30.082Z,4.45
2018-02-01T21:23:59.234Z,5.10
2018-02-01T21:26:27.250Z,5.12
2018-02-01T21:28:55.340Z,4.63
2018-02-01T21:31:23.557Z,4.85
2018-02-01T21:33:52.789Z,5.68
2018-02-01T21:36:21.496Z,5.00
2018-02-01T21:38:49.590Z,4.68
2018-02-01T21:41:17.693Z,5.05
2018-02-01T21:43:46.569Z,4.82
2018-02-01T21:46:15.323Z,5.03
2018-02-01T21:48:43.646Z,4.53
2018-02-01T21:51:11.847Z,5.43
2018-02-01T21:53:39.810Z,4.55
2018-02-01T21:56:07.918Z,4.25
2018-02-01T21:58:35.881Z,4.35
2018-02-01T22:01:03.970Z,4.73
2018-02-01T22:03:32.129Z,4.82
2018-02-01T22:06:00.451Z,5.15
2018-02-01T22:08:28.476Z,4.93
2018-02-01T22:10:56.428Z,5.35
2018-02-01T22:13:24.525Z,5.62
2018-02-01T22:15:52.718Z,5.47
2018-02-01T22:18:20.800Z,5.37
2018-02-01T22:20:48.825Z,5.28
2018-02-01T22:23:16.809Z,7.10
2018-02-01T22:25:45.020Z,6.18
2018-02-01T22:28:12.980Z,6.68
2018-02-01T22:30:40.931Z,6.47
2018-02-01T22:33:08.916Z,7.18
2018-02-01T22:35:37.011Z,8.00
2018-02-01T22:38:05.323Z,9.30
2018-02-01T22:40:33.314Z,9.63
2018-02-01T22:43:01.286Z,10.07
2018-02-01T22:45:29.356Z,9.15
2018-02-01T22:47:57.343Z,10.32
2018-02-01T22:50:26.128Z,8.45
2018-02-01T22:52:55.009Z,9.70
2018-02-01T22:55:23.287Z,6.87
2018-02-01T22:57:52.035Z,9.05
2018-02-01T23:00:21.022Z,8.10
2018-02-01T23:02:49.179Z,9.63
2018-02-01T23:05:17.239Z,8.90
2018-02-01T23:07:45.313Z,9.48
2018-02-01T23:10:13.304Z,9.13
2018-02-01T23:12:41.220Z,8.75
2018-02-01T23:15:10.078Z,10.15
2018-02-01T23:17:38.059Z,8.50
2018-02-01T23:20:06.104Z,8.95
2018-02-01T23:22:34.007Z,8.70
2018-02-01T23:25:02.118Z,9.68
2018-02-01T23:27:30.128Z,9.70
2018-02-01T23:29:58.083Z,9.52
2018-02-01T23:32:26.083Z,10.23
2018-02-01T23:34:54.510Z,10.10
2018-02-01T23:37:22.645Z,10.90
2018-02-01T23:39:51.397Z,9.52
2018-02-01T23:42:19.686Z,9.75
2018-02-01T23:44:47.682Z,8.98
2018-02-01T23:47:16.592Z,7.47
2018-02-01T23:49:44.638Z,9.27
2018-02-01T23:52:13.309Z,8.35
2018-02-01T23:54:41.298Z,9.38
2018-02-01T23:57:10.318Z,6.97
2018-02-01T23:59:38.374Z,8.52
